sensor_id;sensor_type;location;lat;lon;timestamp;temperature;humidity
39453;DHT22;25154;-33.684;151.102;2023-01-30T00:00:22;21.70;99.90
39453;DHT22;25154;-33.684;151.102;2023-01-30T00:05:24;21.80;99.90
39453;DHT22;25154;-33.684;151.102;2023-01-30T00:10:26;21.80;99.90
39453;DHT22;25154;-33.684;151.102;2023-01-30T00:15:29;21.70;99.90
39453;DHT22;25154;-33.684;151.102;2023-01-30T00:20:31;21.70;99.90
39453;DHT22;25154;-33.684;151.102;2023-01-30T00:25:34;21.70;99.90
39453;DHT22;25154;-33.684;151.102;2023-01-30T00:30:36;21.70;99.90
39453;DHT22;25154;-33.684;151.102;2023-01-30T00:35:46;21.60;99.90
39453;DHT22;25154;-33.684;151.102;2023-01-30T00:40:49;21.60;99.90
39453;DHT22;25154;-33.684;151.102;2023-01-30T00:45:53;21.60;99.90
39453;DHT22;25154;-33.684;151.102;2023-01-30T00:51:14;21.70;99.90
39453;DHT22;25154;-33.684;151.102;2023-01-30T00:56:16;21.80;99.90
39453;DHT22;25154;-33.684;151.102;2023-01-30T01:01:18;21.90;99.90
39453;DHT22;25154;-33.684;151.102;2023-01-30T01:06:21;22.10;99.90
39453;DHT22;25154;-33.684;151.102;2023-01-30T01:11:23;22.40;99.90
39453;DHT22;25154;-33.684;151.102;2023-01-30T01:16:27;22.70;99.90
39453;DHT22;25154;-33.684;151.102;2023-01-30T01:21:30;22.90;99.90
39453;DHT22;25154;-33.684;151.102;2023-01-30T01:26:36;24.10;99.90
39453;DHT22;25154;-33.684;151.102;2023-01-30T01:31:38;25.30;99.90
39453;DHT22;25154;-33.684;151.102;2023-01-30T01:36:47;25.60;99.90
39453;DHT22;25154;-33.684;151.102;2023-01-30T01:41:51;26.30;99.90
39453;DHT22;25154;-33.684;151.102;2023-01-30T01:46:56;27.80;99.90
39453;DHT22;25154;-33.684;151.102;2023-01-30T01:57:13;29.50;99.90
39453;DHT22;25154;-33.684;151.102;2023-01-30T02:02:18;30.10;99.90
39453;DHT22;25154;-33.684;151.102;2023-01-30T02:07:22;30.70;99.90
39453;DHT22;25154;-33.684;151.102;2023-01-30T02:12:26;30.50;99.90
39453;DHT22;25154;-33.684;151.102;2023-01-30T02:17:30;29.90;99.90
39453;DHT22;25154;-33.684;151.102;2023-01-30T02:39:52;27.90;99.90
39453;DHT22;25154;-33.684;151.102;2023-01-30T02:44:25;27.90;99.90
39453;DHT22;25154;-33.684;151.102;2023-01-30T02:54:41;28.30;99.90
39453;DHT22;25154;-33.684;151.102;2023-01-30T02:59:51;29.00;99.90
39453;DHT22;25154;-33.684;151.102;2023-01-30T03:10:33;28.80;99.90
39453;DHT22;25154;-33.684;151.102;2023-01-30T03:15:52;29.30;99.90
39453;DHT22;25154;-33.684;151.102;2023-01-30T03:20:55;29.40;99.90
39453;DHT22;25154;-33.684;151.102;2023-01-30T03:26:07;30.00;99.90
39453;DHT22;25154;-33.684;151.102;2023-01-30T03:31:11;29.20;99.90
39453;DHT22;25154;-33.684;151.102;2023-01-30T03:36:19;31.20;99.90
39453;DHT22;25154;-33.684;151.102;2023-01-30T03:41:23;31.30;99.90
39453;DHT22;25154;-33.684;151.102;2023-01-30T03:46:25;29.50;99.90
39453;DHT22;25154;-33.684;151.102;2023-01-30T03:51:30;28.10;99.90
39453;DHT22;25154;-33.684;151.102;2023-01-30T03:56:33;27.90;99.90
39453;DHT22;25154;-33.684;151.102;2023-01-30T04:01:41;27.40;99.90
39453;DHT22;25154;-33.684;151.102;2023-01-30T04:06:43;27.20;99.90
39453;DHT22;25154;-33.684;151.102;2023-01-30T04:11:49;27.10;99.90
39453;DHT22;25154;-33.684;151.102;2023-01-30T04:16:51;27.40;99.90
39453;DHT22;25154;-33.684;151.102;2023-01-30T04:21:54;27.60;99.90
39453;DHT22;25154;-33.684;151.102;2023-01-30T04:26:56;27.50;99.90
39453;DHT22;25154;-33.684;151.102;2023-01-30T04:31:58;27.20;99.90
39453;DHT22;25154;-33.684;151.102;2023-01-30T04:37:01;26.80;99.90
39453;DHT22;25154;-33.684;151.102;2023-01-30T04:42:03;26.70;99.90
39453;DHT22;25154;-33.684;151.102;2023-01-30T04:47:06;26.50;99.90
39453;DHT22;25154;-33.684;151.102;2023-01-30T04:52:08;26.30;99.90
39453;DHT22;25154;-33.684;151.102;2023-01-30T04:57:11;26.10;99.90
39453;DHT22;25154;-33.684;151.102;2023-01-30T05:02:13;26.00;99.90
39453;DHT22;25154;-33.684;151.102;2023-01-30T05:07:15;25.80;99.90
39453;DHT22;25154;-33.684;151.102;2023-01-30T05:12:21;25.70;99.90
39453;DHT22;25154;-33.684;151.102;2023-01-30T05:17:23;25.40;99.90
39453;DHT22;25154;-33.684;151.102;2023-01-30T05:22:26;25.10;99.90
39453;DHT22;25154;-33.684;151.102;2023-01-30T05:27:28;25.10;99.90
39453;DHT22;25154;-33.684;151.102;2023-01-30T05:32:30;25.20;99.90
39453;DHT22;25154;-33.684;151.102;2023-01-30T05:37:33;25.00;99.90
39453;DHT22;25154;-33.684;151.102;2023-01-30T05:42:35;24.90;99.90
39453;DHT22;25154;-33.684;151.102;2023-01-30T05:47:37;24.90;99.90
39453;DHT22;25154;-33.684;151.102;2023-01-30T05:52:40;24.70;99.90
39453;DHT22;25154;-33.684;151.102;2023-01-30T05:57:42;24.30;99.90
39453;DHT22;25154;-33.684;151.102;2023-01-30T06:02:45;24.20;99.90
39453;DHT22;25154;-33.684;151.102;2023-01-30T06:07:47;24.50;99.90
39453;DHT22;25154;-33.684;151.102;2023-01-30T06:12:50;23.90;99.90
39453;DHT22;25154;-33.684;151.102;2023-01-30T06:17:52;23.80;99.90
39453;DHT22;25154;-33.684;151.102;2023-01-30T06:22:54;23.80;99.90
39453;DHT22;25154;-33.684;151.102;2023-01-30T06:27:57;23.80;99.90
39453;DHT22;25154;-33.684;151.102;2023-01-30T06:32:59;23.80;99.90
39453;DHT22;25154;-33.684;151.102;2023-01-30T06:38:05;23.70;99.90
39453;DHT22;25154;-33.684;151.102;2023-01-30T06:43:10;23.60;99.90
39453;DHT22;25154;-33.684;151.102;2023-01-30T06:48:12;23.50;99.90
39453;DHT22;25154;-33.684;151.102;2023-01-30T06:53:14;23.20;99.90
39453;DHT22;25154;-33.684;151.102;2023-01-30T06:58:17;23.00;99.90
39453;DHT22;25154;-33.684;151.102;2023-01-30T07:03:19;22.90;99.90
39453;DHT22;25154;-33.684;151.102;2023-01-30T07:08:22;22.50;99.90
39453;DHT22;25154;-33.684;151.102;2023-01-30T07:13:24;22.40;99.90
39453;DHT22;25154;-33.684;151.102;2023-01-30T07:18:41;22.30;99.90
39453;DHT22;25154;-33.684;151.102;2023-01-30T07:23:45;22.30;99.90
39453;DHT22;25154;-33.684;151.102;2023-01-30T07:28:48;22.20;99.90
39453;DHT22;25154;-33.684;151.102;2023-01-30T07:33:50;22.10;99.90
39453;DHT22;25154;-33.684;151.102;2023-01-30T07:38:54;21.70;99.90
39453;DHT22;25154;-33.684;151.102;2023-01-30T07:43:57;21.60;99.90
39453;DHT22;25154;-33.684;151.102;2023-01-30T07:49:06;21.40;99.90
39453;DHT22;25154;-33.684;151.102;2023-01-30T07:54:13;21.20;99.90
39453;DHT22;25154;-33.684;151.102;2023-01-30T07:59:17;21.40;99.90
39453;DHT22;25154;-33.684;151.102;2023-01-30T08:04:21;21.10;99.90
39453;DHT22;25154;-33.684;151.102;2023-01-30T08:09:23;21.10;99.90
39453;DHT22;25154;-33.684;151.102;2023-01-30T08:14:33;21.00;99.90
39453;DHT22;25154;-33.684;151.102;2023-01-30T08:19:36;22.00;99.90
39453;DHT22;25154;-33.684;151.102;2023-01-30T08:24:43;20.70;99.90
39453;DHT22;25154;-33.684;151.102;2023-01-30T08:29:47;20.70;99.90
39453;DHT22;25154;-33.684;151.102;2023-01-30T08:34:53;20.50;99.90
39453;DHT22;25154;-33.684;151.102;2023-01-30T08:39:57;20.60;99.90
39453;DHT22;25154;-33.684;151.102;2023-01-30T08:50:17;20.60;99.90
39453;DHT22;25154;-33.684;151.102;2023-01-30T08:55:23;20.80;99.90
39453;DHT22;25154;-33.684;151.102;2023-01-30T09:00:26;20.40;99.90
39453;DHT22;25154;-33.684;151.102;2023-01-30T09:05:29;20.40;99.90
39453;DHT22;25154;-33.684;151.102;2023-01-30T09:10:31;20.30;99.90
39453;DHT22;25154;-33.684;151.102;2023-01-30T09:15:33;20.30;99.90
39453;DHT22;25154;-33.684;151.102;2023-01-30T09:20:39;20.30;99.90
39453;DHT22;25154;-33.684;151.102;2023-01-30T09:25:44;20.30;99.90
39453;DHT22;25154;-33.684;151.102;2023-01-30T09:30:47;20.20;99.90
39453;DHT22;25154;-33.684;151.102;2023-01-30T09:35:50;20.20;99.90
39453;DHT22;25154;-33.684;151.102;2023-01-30T09:46:59;20.20;99.90
39453;DHT22;25154;-33.684;151.102;2023-01-30T09:52:30;20.10;99.90
39453;DHT22;25154;-33.684;151.102;2023-01-30T09:57:35;20.00;99.90
39453;DHT22;25154;-33.684;151.102;2023-01-30T10:18:48;20.00;99.90
39453;DHT22;25154;-33.684;151.102;2023-01-30T10:24:06;20.00;99.90
39453;DHT22;25154;-33.684;151.102;2023-01-30T10:29:14;20.00;99.90
39453;DHT22;25154;-33.684;151.102;2023-01-30T10:34:29;20.00;99.90
39453;DHT22;25154;-33.684;151.102;2023-01-30T10:39:51;20.00;99.90
39453;DHT22;25154;-33.684;151.102;2023-01-30T10:45:15;19.90;99.90
39453;DHT22;25154;-33.684;151.102;2023-01-30T10:55:42;19.80;99.90
39453;DHT22;25154;-33.684;151.102;2023-01-30T11:06:33;19.70;99.90
39453;DHT22;25154;-33.684;151.102;2023-01-30T11:11:54;19.60;99.90
39453;DHT22;25154;-33.684;151.102;2023-01-30T11:16:57;19.50;99.90
39453;DHT22;25154;-33.684;151.102;2023-01-30T11:22:02;19.50;99.90
39453;DHT22;25154;-33.684;151.102;2023-01-30T11:27:23;19.50;99.90
39453;DHT22;25154;-33.684;151.102;2023-01-30T11:32:27;19.40;99.90
39453;DHT22;25154;-33.684;151.102;2023-01-30T11:37:43;19.40;99.90
39453;DHT22;25154;-33.684;151.102;2023-01-30T11:43:02;19.40;99.90
39453;DHT22;25154;-33.684;151.102;2023-01-30T11:48:11;19.40;99.90
39453;DHT22;25154;-33.684;151.102;2023-01-30T11:58:37;19.20;99.90
39453;DHT22;25154;-33.684;151.102;2023-01-30T12:03:53;19.30;99.90
39453;DHT22;25154;-33.684;151.102;2023-01-30T12:08:56;19.40;99.90
39453;DHT22;25154;-33.684;151.102;2023-01-30T12:14:20;19.30;99.90
39453;DHT22;25154;-33.684;151.102;2023-01-30T12:19:53;19.30;99.90
39453;DHT22;25154;-33.684;151.102;2023-01-30T12:24:59;19.20;99.90
39453;DHT22;25154;-33.684;151.102;2023-01-30T12:30:30;19.20;99.90
39453;DHT22;25154;-33.684;151.102;2023-01-30T12:41:25;19.20;99.90
39453;DHT22;25154;-33.684;151.102;2023-01-30T12:57:00;19.30;99.90
39453;DHT22;25154;-33.684;151.102;2023-01-30T13:13:13;19.20;99.90
39453;DHT22;25154;-33.684;151.102;2023-01-30T13:29:15;19.20;99.90
39453;DHT22;25154;-33.684;151.102;2023-01-30T13:34:34;19.20;99.90
39453;DHT22;25154;-33.684;151.102;2023-01-30T13:44:52;19.20;99.90
39453;DHT22;25154;-33.684;151.102;2023-01-30T13:55:44;19.10;99.90
39453;DHT22;25154;-33.684;151.102;2023-01-30T14:00:54;19.10;99.90
39453;DHT22;25154;-33.684;151.102;2023-01-30T14:05:58;19.10;99.90
39453;DHT22;25154;-33.684;151.102;2023-01-30T14:11:28;19.10;99.90
39453;DHT22;25154;-33.684;151.102;2023-01-30T14:16:46;19.00;99.90
39453;DHT22;25154;-33.684;151.102;2023-01-30T14:21:57;19.00;99.90
39453;DHT22;25154;-33.684;151.102;2023-01-30T14:27:01;19.00;99.90
39453;DHT22;25154;-33.684;151.102;2023-01-30T14:42:36;18.90;99.90
39453;DHT22;25154;-33.684;151.102;2023-01-30T14:47:38;19.00;99.90
39453;DHT22;25154;-33.684;151.102;2023-01-30T14:52:43;18.90;99.90
39453;DHT22;25154;-33.684;151.102;2023-01-30T14:57:58;18.90;99.90
39453;DHT22;25154;-33.684;151.102;2023-01-30T15:03:08;18.90;99.90
39453;DHT22;25154;-33.684;151.102;2023-01-30T15:08:21;18.90;99.90
39453;DHT22;25154;-33.684;151.102;2023-01-30T15:35:24;18.90;99.90
39453;DHT22;25154;-33.684;151.102;2023-01-30T15:40:31;18.90;99.90
39453;DHT22;25154;-33.684;151.102;2023-01-30T15:50:54;18.90;99.90
39453;DHT22;25154;-33.684;151.102;2023-01-30T15:56:00;18.80;99.90
39453;DHT22;25154;-33.684;151.102;2023-01-30T16:01:03;18.80;99.90
39453;DHT22;25154;-33.684;151.102;2023-01-30T16:06:06;18.80;99.90
39453;DHT22;25154;-33.684;151.102;2023-01-30T16:11:09;18.70;99.90
39453;DHT22;25154;-33.684;151.102;2023-01-30T16:16:18;18.70;99.90
39453;DHT22;25154;-33.684;151.102;2023-01-30T16:21:44;18.70;99.90
39453;DHT22;25154;-33.684;151.102;2023-01-30T16:26:48;18.70;99.90
39453;DHT22;25154;-33.684;151.102;2023-01-30T16:31:53;18.60;99.90
39453;DHT22;25154;-33.684;151.102;2023-01-30T16:37:03;18.60;99.90
39453;DHT22;25154;-33.684;151.102;2023-01-30T16:47:27;18.50;99.90
39453;DHT22;25154;-33.684;151.102;2023-01-30T16:52:34;18.50;99.90
39453;DHT22;25154;-33.684;151.102;2023-01-30T16:57:48;18.50;99.90
39453;DHT22;25154;-33.684;151.102;2023-01-30T17:02:58;18.40;99.90
39453;DHT22;25154;-33.684;151.102;2023-01-30T17:08:01;18.30;99.90
39453;DHT22;25154;-33.684;151.102;2023-01-30T17:13:25;18.30;99.90
39453;DHT22;25154;-33.684;151.102;2023-01-30T17:18:26;18.20;99.90
39453;DHT22;25154;-33.684;151.102;2023-01-30T17:23:28;18.20;99.90
39453;DHT22;25154;-33.684;151.102;2023-01-30T17:28:31;18.20;99.90
39453;DHT22;25154;-33.684;151.102;2023-01-30T17:33:33;18.10;99.90
39453;DHT22;25154;-33.684;151.102;2023-01-30T17:38:35;18.10;99.90
39453;DHT22;25154;-33.684;151.102;2023-01-30T17:43:38;18.00;99.90
39453;DHT22;25154;-33.684;151.102;2023-01-30T17:48:42;18.00;99.90
39453;DHT22;25154;-33.684;151.102;2023-01-30T17:53:45;18.00;99.90
39453;DHT22;25154;-33.684;151.102;2023-01-30T17:58:47;18.00;99.90
39453;DHT22;25154;-33.684;151.102;2023-01-30T18:03:51;18.00;99.90
39453;DHT22;25154;-33.684;151.102;2023-01-30T18:08:53;18.00;99.90
39453;DHT22;25154;-33.684;151.102;2023-01-30T18:13:55;18.00;99.90
39453;DHT22;25154;-33.684;151.102;2023-01-30T18:18:59;18.00;99.90
39453;DHT22;25154;-33.684;151.102;2023-01-30T18:24:06;18.00;99.90
39453;DHT22;25154;-33.684;151.102;2023-01-30T18:29:09;18.00;99.90
39453;DHT22;25154;-33.684;151.102;2023-01-30T18:34:11;18.00;99.90
39453;DHT22;25154;-33.684;151.102;2023-01-30T18:39:14;18.00;99.90
39453;DHT22;25154;-33.684;151.102;2023-01-30T18:44:18;17.90;99.90
39453;DHT22;25154;-33.684;151.102;2023-01-30T18:49:21;17.90;99.90
39453;DHT22;25154;-33.684;151.102;2023-01-30T18:54:24;18.00;99.90
39453;DHT22;25154;-33.684;151.102;2023-01-30T18:59:26;18.00;99.90
39453;DHT22;25154;-33.684;151.102;2023-01-30T19:04:28;17.90;99.90
39453;DHT22;25154;-33.684;151.102;2023-01-30T19:09:31;17.90;99.90
39453;DHT22;25154;-33.684;151.102;2023-01-30T19:14:33;17.90;99.90
39453;DHT22;25154;-33.684;151.102;2023-01-30T19:19:36;17.90;99.90
39453;DHT22;25154;-33.684;151.102;2023-01-30T19:24:38;18.00;99.90
39453;DHT22;25154;-33.684;151.102;2023-01-30T19:29:41;18.00;99.90
39453;DHT22;25154;-33.684;151.102;2023-01-30T19:34:44;18.00;99.90
39453;DHT22;25154;-33.684;151.102;2023-01-30T19:39:46;18.00;99.90
39453;DHT22;25154;-33.684;151.102;2023-01-30T19:44:48;18.00;99.90
39453;DHT22;25154;-33.684;151.102;2023-01-30T19:49:51;18.20;99.90
39453;DHT22;25154;-33.684;151.102;2023-01-30T19:54:54;18.00;99.90
39453;DHT22;25154;-33.684;151.102;2023-01-30T19:59:56;18.00;99.90
39453;DHT22;25154;-33.684;151.102;2023-01-30T20:04:58;18.20;99.90
39453;DHT22;25154;-33.684;151.102;2023-01-30T20:10:04;18.20;99.90
39453;DHT22;25154;-33.684;151.102;2023-01-30T20:15:07;18.30;99.90
39453;DHT22;25154;-33.684;151.102;2023-01-30T20:20:11;18.50;99.90
39453;DHT22;25154;-33.684;151.102;2023-01-30T20:25:13;18.70;99.90
39453;DHT22;25154;-33.684;151.102;2023-01-30T20:30:16;18.90;99.90
39453;DHT22;25154;-33.684;151.102;2023-01-30T20:35:19;19.00;99.90
39453;DHT22;25154;-33.684;151.102;2023-01-30T20:40:22;19.10;99.90
39453;DHT22;25154;-33.684;151.102;2023-01-30T20:45:24;19.20;99.90
39453;DHT22;25154;-33.684;151.102;2023-01-30T20:50:26;19.40;99.90
39453;DHT22;25154;-33.684;151.102;2023-01-30T20:55:29;19.50;99.90
39453;DHT22;25154;-33.684;151.102;2023-01-30T21:00:31;19.70;99.90
39453;DHT22;25154;-33.684;151.102;2023-01-30T21:05:33;20.00;99.90
39453;DHT22;25154;-33.684;151.102;2023-01-30T21:10:36;20.20;99.90
39453;DHT22;25154;-33.684;151.102;2023-01-30T21:15:40;20.40;99.90
39453;DHT22;25154;-33.684;151.102;2023-01-30T21:20:48;20.30;99.90
39453;DHT22;25154;-33.684;151.102;2023-01-30T21:25:50;20.40;99.90
39453;DHT22;25154;-33.684;151.102;2023-01-30T21:30:53;20.50;99.90
39453;DHT22;25154;-33.684;151.102;2023-01-30T21:35:58;20.70;99.90
39453;DHT22;25154;-33.684;151.102;2023-01-30T21:41:00;20.80;99.90
39453;DHT22;25154;-33.684;151.102;2023-01-30T21:46:20;20.70;99.90
39453;DHT22;25154;-33.684;151.102;2023-01-30T21:51:23;20.80;99.90
39453;DHT22;25154;-33.684;151.102;2023-01-30T21:56:26;21.00;99.90
39453;DHT22;25154;-33.684;151.102;2023-01-30T22:01:29;21.20;99.90
39453;DHT22;25154;-33.684;151.102;2023-01-30T22:06:32;21.30;99.90
39453;DHT22;25154;-33.684;151.102;2023-01-30T22:11:35;21.10;99.90
39453;DHT22;25154;-33.684;151.102;2023-01-30T22:16:38;21.50;99.90
39453;DHT22;25154;-33.684;151.102;2023-01-30T22:21:41;21.70;99.90
39453;DHT22;25154;-33.684;151.102;2023-01-30T22:26:43;21.90;99.90
39453;DHT22;25154;-33.684;151.102;2023-01-30T22:31:46;22.30;99.90
39453;DHT22;25154;-33.684;151.102;2023-01-30T22:36:48;22.50;99.90
39453;DHT22;25154;-33.684;151.102;2023-01-30T22:41:50;22.50;99.90
39453;DHT22;25154;-33.684;151.102;2023-01-30T22:46:53;22.80;99.90
39453;DHT22;25154;-33.684;151.102;2023-01-30T22:51:55;23.30;99.90
39453;DHT22;25154;-33.684;151.102;2023-01-30T22:56:59;23.00;99.90
39453;DHT22;25154;-33.684;151.102;2023-01-30T23:02:01;22.90;99.90
39453;DHT22;25154;-33.684;151.102;2023-01-30T23:07:04;23.10;99.90
39453;DHT22;25154;-33.684;151.102;2023-01-30T23:12:06;23.50;99.90
39453;DHT22;25154;-33.684;151.102;2023-01-30T23:17:27;23.50;99.90
39453;DHT22;25154;-33.684;151.102;2023-01-30T23:22:50;23.40;99.90
39453;DHT22;25154;-33.684;151.102;2023-01-30T23:27:53;23.50;99.90
39453;DHT22;25154;-33.684;151.102;2023-01-30T23:32:56;23.60;99.90
39453;DHT22;25154;-33.684;151.102;2023-01-30T23:37:58;23.80;99.90
39453;DHT22;25154;-33.684;151.102;2023-01-30T23:43:22;23.60;99.90
39453;DHT22;25154;-33.684;151.102;2023-01-30T23:48:24;23.50;99.90
39453;DHT22;25154;-33.684;151.102;2023-01-30T23:53:27;23.60;99.90
39453;DHT22;25154;-33.684;151.102;2023-01-30T23:58:29;23.70;99.90
